Time;durP1;ratioP1;P1;durP2;ratioP2;P2;SDS_P1;SDS_P2;PMS_P1;PMS_P2;Temp;Humidity;BMP_temperature;BMP_pressure;BME280_temperature;BME280_humidity;BME280_pressure;Samples;Min_cycle;Max_cycle;Signal;HPM_P1;HPM_P2
2023/03/24 00:00:48;;;;;;;1.87;1.33;;;;;;;10.20;100.00;99280.59;5052726;28;20699;-74
2023/03/24 00:03:16;;;;;;;1.30;1.20;;;;;;;10.24;100.00;99285.50;5052607;28;20628;-73
2023/03/24 00:05:43;;;;;;;1.63;1.47;;;;;;;10.20;100.00;99285.72;5052482;28;20230;-74
2023/03/24 00:08:11;;;;;;;2.87;1.77;;;;;;;10.33;100.00;99284.94;5052161;28;20711;-75
2023/03/24 00:10:39;;;;;;;2.30;1.53;;;;;;;10.32;100.00;99279.00;5052371;28;20195;-74
2023/03/24 00:13:08;;;;;;;1.67;1.57;;;;;;;10.38;100.00;99277.75;5052158;28;20269;-74
2023/03/24 00:15:35;;;;;;;1.97;1.70;;;;;;;10.27;100.00;99275.09;5052253;28;20200;-73
2023/03/24 00:18:02;;;;;;;2.23;1.50;;;;;;;10.26;100.00;99273.44;5052301;28;20649;-73
2023/03/24 00:20:29;;;;;;;1.87;1.67;;;;;;;10.33;100.00;99282.38;5051993;28;20318;-73
2023/03/24 00:22:57;;;;;;;3.50;1.87;;;;;;;10.35;100.00;99277.97;5052521;28;20196;-73
2023/03/24 00:25:28;;;;;;;2.03;1.47;;;;;;;10.26;100.00;99269.16;5052084;28;20203;-74
2023/03/24 00:27:56;;;;;;;1.63;1.53;;;;;;;10.24;100.00;99270.19;5052335;28;20200;-73
2023/03/24 00:30:24;;;;;;;2.20;1.50;;;;;;;10.30;100.00;99269.81;5052440;28;20196;-73
2023/03/24 00:32:51;;;;;;;1.20;1.10;;;;;;;10.26;100.00;99273.44;5051970;28;20226;-74
2023/03/24 00:35:18;;;;;;;1.10;1.00;;;;;;;10.30;100.00;99262.16;5051854;28;20677;-73
2023/03/24 00:37:46;;;;;;;2.70;2.03;;;;;;;10.32;100.00;99262.84;5052030;28;20218;-73
2023/03/24 00:40:15;;;;;;;2.00;1.63;;;;;;;10.28;100.00;99269.09;5051649;28;20200;-73
2023/03/24 00:42:44;;;;;;;2.07;1.53;;;;;;;10.38;100.00;99264.97;5051885;28;20207;-73
2023/03/24 00:45:13;;;;;;;1.40;1.30;;;;;;;10.31;100.00;99264.59;5051827;28;20288;-73
2023/03/24 00:47:43;;;;;;;1.60;1.50;;;;;;;10.37;100.00;99265.91;5051703;28;20303;-73
2023/03/24 00:50:13;;;;;;;2.03;1.60;;;;;;;10.49;100.00;99270.16;5051538;28;20240;-73
2023/03/24 00:52:43;;;;;;;2.50;2.30;;;;;;;10.43;100.00;99265.47;5051725;28;20199;-74
2023/03/24 00:55:12;;;;;;;1.63;1.53;;;;;;;10.35;100.00;99265.19;5051310;28;20199;-74
2023/03/24 00:57:39;;;;;;;1.93;1.40;;;;;;;10.31;100.00;99262.03;5051751;28;20577;-74
2023/03/24 01:00:12;;;;;;;2.77;1.70;;;;;;;10.35;100.00;99260.06;5051401;28;20222;-73
2023/03/24 01:02:39;;;;;;;3.00;1.73;;;;;;;10.18;100.00;99267.13;5051529;28;20210;-73
2023/03/24 01:05:08;;;;;;;1.10;1.00;;;;;;;10.17;100.00;99260.38;5051296;28;20302;-73
2023/03/24 01:07:35;;;;;;;2.33;1.53;;;;;;;10.12;100.00;99259.91;5051489;28;20196;-75
2023/03/24 01:10:03;;;;;;;1.70;1.40;;;;;;;10.16;100.00;99263.84;5051191;28;20215;-74
2023/03/24 01:12:33;;;;;;;2.13;1.13;;;;;;;10.00;100.00;99268.34;5051454;28;20493;-74
2023/03/24 01:15:04;;;;;;;1.50;1.33;;;;;;;9.97;100.00;99264.25;5051003;28;20308;-74
2023/03/24 01:17:33;;;;;;;2.37;1.83;;;;;;;9.97;100.00;99263.44;5051160;28;20214;-73
2023/03/24 01:20:06;;;;;;;2.37;1.50;;;;;;;9.88;100.00;99258.97;5050351;28;20579;-74
2023/03/24 01:22:36;;;;;;;1.70;1.43;;;;;;;9.93;100.00;99254.38;5050898;28;20235;-73
2023/03/24 01:25:04;;;;;;;2.00;1.60;;;;;;;9.90;100.00;99254.56;5051102;28;20237;-74
2023/03/24 01:27:31;;;;;;;2.63;1.60;;;;;;;9.67;100.00;99256.91;5050985;28;20221;-73
2023/03/24 01:29:59;;;;;;;1.70;1.50;;;;;;;9.73;100.00;99246.28;5050773;28;20261;-75
2023/03/24 01:32:26;;;;;;;2.57;1.63;;;;;;;9.83;100.00;99248.22;5051131;28;20213;-73
2023/03/24 01:34:53;;;;;;;2.40;1.20;;;;;;;9.63;100.00;99240.19;5050661;28;20306;-73
2023/03/24 01:37:22;;;;;;;1.80;1.47;;;;;;;9.53;100.00;99250.16;5050834;28;20203;-74
2023/03/24 01:39:50;;;;;;;2.87;1.67;;;;;;;9.49;100.00;99247.91;5051087;28;20219;-73
2023/03/24 01:42:19;;;;;;;4.83;1.80;;;;;;;9.36;100.00;99252.97;5050626;28;20223;-73
2023/03/24 01:44:47;;;;;;;1.83;1.43;;;;;;;9.26;100.00;99251.94;5050947;28;20219;-73
2023/03/24 01:47:14;;;;;;;2.47;1.33;;;;;;;9.17;100.00;99248.25;5050549;28;20340;-73
2023/03/24 01:49:45;;;;;;;1.87;1.60;;;;;;;9.17;100.00;99258.47;5050646;28;20227;-73
2023/03/24 01:52:16;;;;;;;1.57;1.37;;;;;;;9.06;100.00;99271.88;5050668;28;20199;-73
2023/03/24 01:54:47;;;;;;;1.40;1.30;;;;;;;9.13;100.00;99271.50;5050410;28;20215;-73
2023/03/24 01:57:21;;;;;;;1.63;1.30;;;;;;;9.03;100.00;99261.88;5050488;28;20229;-73
2023/03/24 01:59:51;;;;;;;1.67;1.10;;;;;;;9.04;100.00;99258.41;5050626;28;20802;-74
2023/03/24 02:02:20;;;;;;;2.23;1.70;;;;;;;9.09;100.00;99250.47;5050724;28;20237;-73
2023/03/24 02:04:52;;;;;;;2.70;1.77;;;;;;;8.98;100.00;99255.44;5050414;28;20227;-73
2023/03/24 02:07:31;;;;;;;2.43;1.67;;;;;;;8.86;100.00;99264.66;5050393;28;20199;-73
2023/03/24 02:09:58;;;;;;;1.63;1.33;;;;;;;8.79;100.00;99260.88;5050031;28;20307;-74
2023/03/24 02:12:26;;;;;;;1.57;1.47;;;;;;;8.71;100.00;99246.03;5050305;28;20219;-73
2023/03/24 02:14:54;;;;;;;2.23;1.40;;;;;;;8.59;100.00;99237.41;5049804;28;20310;-73
2023/03/24 02:17:50;;;;;;;2.37;1.53;;;;;;;8.57;100.00;99230.78;5050247;28;20584;-74
2023/03/24 02:20:35;;;;;;;1.63;1.37;;;;;;;8.54;100.00;99223.31;5042102;28;20295;-75
2023/03/24 02:23:48;;;;;;;1.63;1.53;;;;;;;8.51;100.00;99238.81;5049959;28;20238;-73
2023/03/24 02:26:44;;;;;;;2.07;1.00;;;;;;;8.48;100.00;99239.00;5049795;28;20261;-73
2023/03/24 02:29:56;;;;;;;3.80;1.83;;;;;;;8.42;100.00;99234.28;5049906;28;20251;-73
2023/03/24 02:32:57;;;;;;;1.13;0.97;;;;;;;8.39;100.00;99215.72;5049416;28;20209;-73
2023/03/24 02:35:52;;;;;;;2.77;1.60;;;;;;;8.37;100.00;99221.78;5049987;28;20199;-73
2023/03/24 02:38:43;;;;;;;1.40;1.30;;;;;;;8.29;100.00;99219.72;5049954;28;20227;-73
2023/03/24 02:41:17;;;;;;;1.13;1.03;;;;;;;8.26;100.00;99214.81;5049544;28;20232;-73
2023/03/24 02:43:50;;;;;;;1.47;1.27;;;;;;;8.25;100.00;99218.25;5049703;28;20218;-73
2023/03/24 02:46:24;;;;;;;3.67;1.47;;;;;;;8.23;100.00;99217.53;5049723;28;20286;-73
2023/03/24 02:49:06;;;;;;;2.10;1.50;;;;;;;8.14;100.00;99225.72;5049918;28;20222;-74
2023/03/24 02:51:39;;;;;;;2.07;1.33;;;;;;;8.14;100.00;99225.72;5049630;28;20655;-73
2023/03/24 02:54:11;;;;;;;1.50;1.30;;;;;;;8.00;100.00;99220.63;5049857;28;20229;-73
2023/03/24 02:56:44;;;;;;;0.77;0.77;;;;;;;8.02;100.00;99229.81;5049860;28;20199;-75
2023/03/24 02:59:18;;;;;;;1.17;1.00;;;;;;;8.02;100.00;99226.44;5049969;28;20223;-74
2023/03/24 03:01:53;;;;;;;3.97;1.63;;;;;;;7.99;100.00;99226.63;5049526;28;20512;-73
2023/03/24 03:04:24;;;;;;;1.43;1.00;;;;;;;7.92;100.00;99237.19;5049645;28;20219;-73
2023/03/24 03:06:56;;;;;;;2.27;1.70;;;;;;;7.93;100.00;99238.81;5049799;28;20199;-73
2023/03/24 03:09:24;;;;;;;1.87;1.40;;;;;;;7.93;100.00;99228.63;5049962;28;20597;-73
2023/03/24 03:11:57;;;;;;;2.50;2.07;;;;;;;7.89;100.00;99237.34;5049623;28;20222;-73
2023/03/24 03:14:29;;;;;;;1.23;1.07;;;;;;;7.84;100.00;99238.53;5049386;28;20233;-73
2023/03/24 03:17:00;;;;;;;2.73;1.70;;;;;;;7.75;100.00;99239.06;5049716;28;20634;-73
2023/03/24 03:19:32;;;;;;;2.33;1.60;;;;;;;7.72;100.00;99234.97;5049708;28;20223;-73
2023/03/24 03:22:03;;;;;;;2.53;1.80;;;;;;;7.75;100.00;99236.53;5049231;28;20235;-73
2023/03/24 03:24:35;;;;;;;1.73;1.50;;;;;;;7.77;100.00;99235.53;5049402;28;20227;-73
2023/03/24 03:27:08;;;;;;;1.13;1.03;;;;;;;7.75;100.00;99239.88;5049443;28;20213;-73
2023/03/24 03:29:40;;;;;;;1.50;1.40;;;;;;;7.72;100.00;99234.97;5049329;28;20262;-73
2023/03/24 03:32:11;;;;;;;1.53;1.43;;;;;;;7.67;100.00;99242.88;5049474;28;20301;-73
2023/03/24 03:34:44;;;;;;;2.83;1.73;;;;;;;7.79;100.00;99246.44;5049491;28;20219;-76
2023/03/24 03:37:24;;;;;;;1.53;1.43;;;;;;;7.89;100.00;99247.53;5049309;28;20243;-74
2023/03/24 03:39:56;;;;;;;1.20;1.00;;;;;;;7.90;100.00;99246.63;5049360;28;20252;-74
2023/03/24 03:42:24;;;;;;;1.40;1.30;;;;;;;8.07;100.00;99239.72;5050510;28;20733;-74
2023/03/24 03:44:52;;;;;;;2.77;1.90;;;;;;;7.90;100.00;99244.06;5052834;28;20222;-75
2023/03/24 03:47:20;;;;;;;2.37;1.73;;;;;;;7.75;100.00;99250.06;5053055;28;20199;-75
2023/03/24 03:49:47;;;;;;;1.67;1.50;;;;;;;7.71;100.00;99248.63;5052558;28;20229;-75
2023/03/24 03:52:15;;;;;;;1.73;1.63;;;;;;;7.65;100.00;99244.72;5052661;28;20199;-73
2023/03/24 03:54:43;;;;;;;1.80;1.67;;;;;;;7.60;100.00;99245.88;5052449;28;20231;-73
2023/03/24 03:57:12;;;;;;;2.90;1.43;;;;;;;7.61;100.00;99247.50;5052912;28;20244;-73
2023/03/24 03:59:41;;;;;;;3.73;1.57;;;;;;;7.60;100.00;99245.88;5052526;28;20227;-73
2023/03/24 04:02:24;;;;;;;1.67;1.43;;;;;;;7.64;100.00;99247.31;5052490;28;20655;-75
2023/03/24 04:05:26;;;;;;;2.40;1.20;;;;;;;7.65;100.00;99241.31;5052741;28;20219;-76
2023/03/24 04:08:26;;;;;;;2.37;1.60;;;;;;;7.60;100.00;99240.78;5051517;28;20209;-73
2023/03/24 04:11:40;;;;;;;1.10;1.03;;;;;;;7.56;100.00;99239.31;5052344;28;20214;-73
2023/03/24 04:14:22;;;;;;;3.40;1.73;;;;;;;7.51;100.00;99236.22;5052192;28;20326;-73
2023/03/24 04:17:01;;;;;;;1.30;1.20;;;;;;;7.60;100.00;99241.59;5052599;28;20195;-72
2023/03/24 04:19:41;;;;;;;2.80;1.33;;;;;;;7.72;100.00;99240.06;5052802;28;20233;-74
2023/03/24 04:22:24;;;;;;;2.57;1.83;;;;;;;7.76;100.00;99253.44;5052294;28;20245;-73
2023/03/24 04:24:55;;;;;;;1.70;1.60;;;;;;;7.76;100.00;99250.88;5052214;28;20310;-73
2023/03/24 04:27:30;;;;;;;1.67;1.50;;;;;;;7.97;100.00;99238.63;5052446;28;20207;-73
2023/03/24 04:30:09;;;;;;;3.37;1.57;;;;;;;7.91;100.00;99248.28;5052036;28;20309;-73
2023/03/24 04:32:45;;;;;;;2.20;1.43;;;;;;;8.00;100.00;99248.63;5052234;28;20203;-73
2023/03/24 04:35:19;;;;;;;3.53;1.83;;;;;;;7.98;100.00;99250.47;5051935;28;20653;-73
2023/03/24 04:37:48;;;;;;;2.87;1.30;;;;;;;8.11;100.00;99247.06;5052058;28;20211;-73
2023/03/24 04:40:19;;;;;;;3.53;1.77;;;;;;;8.16;100.00;99244.28;5051791;28;20199;-73
2023/03/24 04:42:51;;;;;;;1.53;1.20;;;;;;;8.28;100.00;99247.81;5052205;28;20619;-74
2023/03/24 04:45:18;;;;;;;3.57;1.93;;;;;;;8.41;100.00;99247.91;5051765;28;20211;-74
2023/03/24 04:47:52;;;;;;;2.90;1.63;;;;;;;8.68;100.00;99238.59;5051748;28;20199;-74
2023/03/24 04:50:33;;;;;;;1.57;1.33;;;;;;;8.81;100.00;99246.28;5051547;28;20194;-75
2023/03/24 04:53:00;;;;;;;3.80;2.00;;;;;;;8.98;100.00;99243.50;5051446;28;20290;-74
2023/03/24 04:55:47;;;;;;;1.77;0.97;;;;;;;9.20;100.00;99252.34;5050968;28;20249;-74
2023/03/24 04:58:14;;;;;;;2.60;1.30;;;;;;;9.48;100.00;99252.22;5051703;28;20227;-75
2023/03/24 05:00:43;;;;;;;2.07;1.53;;;;;;;9.69;100.00;99260.19;5051493;28;20294;-75
2023/03/24 05:03:12;;;;;;;3.43;2.07;;;;;;;9.85;100.00;99248.97;5051259;28;20242;-75
2023/03/24 05:05:39;;;;;;;2.53;1.83;;;;;;;10.06;100.00;99247.50;5051377;28;20230;-75
2023/03/24 05:08:07;;;;;;;2.70;1.93;;;;;;;10.33;100.00;99249.16;5051615;28;20628;-75
2023/03/24 05:10:34;;;;;;;2.33;1.70;;;;;;;10.62;100.00;99245.41;5051153;28;20199;-75
2023/03/24 05:13:01;;;;;;;2.80;1.63;;;;;;;11.01;100.00;99252.91;5051093;28;20205;-75
2023/03/24 05:15:28;;;;;;;2.77;2.10;;;;;;;11.31;100.00;99252.44;5051172;28;20667;-75
2023/03/24 05:17:55;;;;;;;1.90;1.60;;;;;;;11.59;100.00;99255.56;5051326;28;20295;-74
2023/03/24 05:20:24;;;;;;;2.93;2.07;;;;;;;11.94;100.00;99266.59;5051108;28;20702;-74
2023/03/24 05:22:52;;;;;;;3.30;1.80;;;;;;;12.22;100.00;99267.09;5051133;28;20241;-74
2023/03/24 05:25:19;;;;;;;2.93;1.80;;;;;;;12.54;100.00;99271.50;5051175;28;20640;-74
2023/03/24 05:27:47;;;;;;;1.93;1.17;;;;;;;12.89;100.00;99274.69;5050935;28;20262;-75
2023/03/24 05:30:15;;;;;;;2.83;1.70;;;;;;;13.21;98.74;99278.19;5050706;28;20208;-75
2023/03/24 05:32:42;;;;;;;2.00;1.40;;;;;;;13.47;95.08;99278.69;5050736;28;20200;-75
2023/03/24 05:35:09;;;;;;;4.30;2.17;;;;;;;13.63;90.73;99284.19;5050827;28;20228;-74
2023/03/24 05:37:37;;;;;;;2.60;1.57;;;;;;;13.85;89.36;99283.25;5050852;28;20201;-75
2023/03/24 05:40:05;;;;;;;4.37;2.03;;;;;;;14.18;91.71;99289.91;5050605;28;20250;-75
2023/03/24 05:42:32;;;;;;;3.17;2.17;;;;;;;14.42;89.25;99287.00;5050516;28;20235;-75
2023/03/24 05:44:59;;;;;;;3.43;2.10;;;;;;;14.62;87.78;99293.06;5050628;28;20223;-75
2023/03/24 05:47:26;;;;;;;3.40;2.30;;;;;;;14.86;86.04;99289.31;5050884;28;20192;-75
2023/03/24 05:49:53;;;;;;;3.33;2.10;;;;;;;15.06;80.94;99288.41;5050360;28;20708;-75
2023/03/24 05:52:21;;;;;;;5.27;2.57;;;;;;;15.20;80.88;99291.53;5050433;28;20205;-75
2023/03/24 05:54:50;;;;;;;3.10;2.30;;;;;;;15.57;80.63;99295.03;5050441;28;20219;-75
2023/03/24 05:57:20;;;;;;;2.77;1.70;;;;;;;15.95;81.02;99293.38;5050445;28;20207;-75
2023/03/24 05:59:47;;;;;;;4.23;2.20;;;;;;;16.25;80.10;99299.25;5050488;28;20222;-76
2023/03/24 06:02:13;;;;;;;3.37;2.33;;;;;;;16.52;76.53;99301.84;5050182;28;20248;-75
2023/03/24 06:04:45;;;;;;;2.77;1.97;;;;;;;16.80;73.38;99299.25;5050248;28;20218;-75
2023/03/24 06:07:13;;;;;;;3.13;1.77;;;;;;;16.97;72.48;99301.06;5050345;28;20216;-75
2023/03/24 06:09:41;;;;;;;3.90;2.37;;;;;;;17.16;72.26;99299.28;5050323;28;20804;-75
2023/03/24 06:12:10;;;;;;;2.27;1.90;;;;;;;17.46;73.26;99305.84;5050355;28;20198;-75
2023/03/24 06:14:37;;;;;;;2.60;1.70;;;;;;;17.63;69.86;99305.03;5050339;28;20237;-76
2023/03/24 06:17:04;;;;;;;4.77;1.93;;;;;;;17.87;69.35;99304.41;5050283;28;20236;-75
2023/03/24 06:19:31;;;;;;;4.00;2.37;;;;;;;18.10;68.53;99319.41;5050198;28;20229;-75
2023/03/24 06:22:01;;;;;;;3.73;2.40;;;;;;;18.15;69.27;99322.34;5050035;28;20695;-75
2023/03/24 06:24:29;;;;;;;4.20;2.57;;;;;;;18.37;68.64;99320.19;5050304;28;20230;-75
2023/03/24 06:27:01;;;;;;;4.03;2.57;;;;;;;18.56;65.99;99322.53;5050427;28;20203;-75
2023/03/24 06:29:29;;;;;;;4.10;2.50;;;;;;;18.55;65.74;99320.91;5050720;28;20219;-75
2023/03/24 06:31:56;;;;;;;3.90;2.37;;;;;;;18.40;65.88;99319.88;5050393;28;20196;-76
2023/03/24 06:34:23;;;;;;;3.97;2.90;;;;;;;18.34;67.87;99318.72;5050167;28;20229;-75
2023/03/24 06:36:50;;;;;;;4.10;2.27;;;;;;;18.49;66.63;99318.94;5050684;28;20202;-75
2023/03/24 06:39:18;;;;;;;2.87;2.30;;;;;;;18.70;62.78;99319.34;5050246;28;20216;-76
2023/03/24 06:41:45;;;;;;;3.83;2.40;;;;;;;18.80;64.16;99321.84;5050360;28;20209;-76
2023/03/24 06:44:12;;;;;;;5.27;2.77;;;;;;;18.55;62.53;99328.66;5050227;28;20688;-76
2023/03/24 06:46:40;;;;;;;5.97;3.27;;;;;;;18.64;69.52;99322.53;5050096;28;20204;-75
2023/03/24 06:49:07;;;;;;;6.77;2.93;;;;;;;18.93;70.79;99311.00;5050144;28;20222;-74
2023/03/24 06:51:34;;;;;;;3.83;2.70;;;;;;;19.00;61.77;99318.00;5050574;28;20205;-75
2023/03/24 06:54:02;;;;;;;4.43;2.37;;;;;;;19.36;63.80;99317.69;5049944;28;20234;-75
2023/03/24 06:56:29;;;;;;;4.87;2.60;;;;;;;19.51;60.85;99325.63;5050051;28;20208;-75
2023/03/24 06:58:56;;;;;;;4.80;2.73;;;;;;;19.80;63.86;99319.16;5049803;28;20234;-75
2023/03/24 07:01:23;;;;;;;3.43;2.33;;;;;;;19.51;57.88;99320.44;5049576;28;20198;-76
2023/03/24 07:03:52;;;;;;;4.10;2.20;;;;;;;19.87;60.00;99325.34;5049892;28;20701;-75
2023/03/24 07:06:19;;;;;;;3.33;2.40;;;;;;;20.09;58.22;99329.81;5049897;28;20201;-76
2023/03/24 07:08:46;;;;;;;2.80;1.93;;;;;;;20.26;55.57;99324.59;5049322;28;20284;-76
2023/03/24 07:11:13;;;;;;;3.27;2.10;;;;;;;20.52;58.70;99325.16;5049418;28;20217;-76
2023/03/24 07:13:40;;;;;;;2.63;2.10;;;;;;;20.68;58.71;99328.66;5049603;28;20230;-76
2023/03/24 07:16:08;;;;;;;6.03;2.70;;;;;;;21.16;55.12;99326.78;5049467;28;20198;-75
2023/03/24 07:18:35;;;;;;;4.30;2.50;;;;;;;21.42;55.41;99337.66;5052884;28;20237;-76
2023/03/24 07:21:03;;;;;;;4.13;2.50;;;;;;;21.21;57.68;99335.66;5053829;28;20587;-75
2023/03/24 07:23:31;;;;;;;4.13;2.67;;;;;;;21.06;55.73;99336.56;5053761;28;20280;-76
2023/03/24 07:25:58;;;;;;;4.80;3.00;;;;;;;20.95;57.80;99340.38;5053966;28;20201;-76
2023/03/24 07:28:25;;;;;;;3.77;2.40;;;;;;;21.00;53.61;99338.06;5053574;28;20230;-75
2023/03/24 07:30:52;;;;;;;4.57;2.70;;;;;;;21.37;55.38;99339.16;5053398;28;20672;-76
2023/03/24 07:33:19;;;;;;;4.57;2.83;;;;;;;21.02;54.67;99347.31;5053438;28;20234;-76
2023/03/24 07:35:46;;;;;;;3.57;2.27;;;;;;;21.55;54.18;99339.66;5053958;28;20264;-75
2023/03/24 07:38:14;;;;;;;3.77;2.30;;;;;;;21.91;52.14;99342.44;5053226;28;20746;-75
2023/03/24 07:40:41;;;;;;;3.50;2.30;;;;;;;21.93;53.54;99340.47;5053328;28;20199;-75
2023/03/24 07:43:08;;;;;;;3.80;2.58;;;;;;;21.98;53.15;99341.72;5053616;28;20231;-75
2023/03/24 07:45:35;;;;;;;3.72;2.33;;;;;;;22.05;50.69;99342.59;5053315;28;20208;-75
2023/03/24 07:48:02;;;;;;;3.95;2.42;;;;;;;21.83;52.56;99339.91;5053193;28;20222;-76
2023/03/24 07:50:29;;;;;;;2.90;2.30;;;;;;;21.66;51.03;99334.03;5053621;28;20211;-75
2023/03/24 07:52:56;;;;;;;4.22;2.38;;;;;;;21.92;52.16;99338.03;5053460;28;20195;-76
2023/03/24 07:55:25;;;;;;;4.78;2.60;;;;;;;22.40;51.96;99335.94;5053391;28;20665;-75
2023/03/24 07:57:52;;;;;;;5.03;2.88;;;;;;;22.89;50.52;99339.69;5053129;28;20517;-75
2023/03/24 08:00:20;;;;;;;3.63;2.38;;;;;;;22.96;51.11;99330.97;5053252;28;20200;-76
2023/03/24 08:02:49;;;;;;;5.13;2.67;;;;;;;22.33;49.63;99329.81;5052972;28;20234;-75
2023/03/24 08:05:18;;;;;;;4.60;2.90;;;;;;;22.29;53.48;99321.56;5053233;28;20282;-76
2023/03/24 08:07:52;;;;;;;3.72;2.85;;;;;;;22.94;52.07;99322.50;5052891;28;20192;-76
2023/03/24 08:10:21;;;;;;;3.90;2.50;;;;;;;23.09;49.63;99330.28;5053137;28;20237;-75
2023/03/24 08:12:50;;;;;;;3.80;2.30;;;;;;;22.95;52.77;99323.31;5052779;28;20346;-75
2023/03/24 08:15:17;;;;;;;5.70;2.63;;;;;;;23.11;50.56;99323.09;5053183;28;20203;-76
2023/03/24 08:17:45;;;;;;;5.15;2.33;;;;;;;23.34;47.98;99322.13;5052687;28;20199;-74
2023/03/24 08:20:13;;;;;;;4.30;2.70;;;;;;;23.51;50.85;99323.47;5052698;28;20231;-75
2023/03/24 08:22:41;;;;;;;4.72;2.80;;;;;;;23.97;47.06;99323.03;5052856;28;20206;-75
2023/03/24 08:25:09;;;;;;;5.43;2.83;;;;;;;23.59;48.38;99319.88;5052510;28;20220;-76
2023/03/24 08:27:37;;;;;;;4.38;2.55;;;;;;;23.12;50.88;99318.69;5052200;28;20214;-75
2023/03/24 08:30:10;;;;;;;3.38;2.30;;;;;;;24.03;48.37;99319.63;5052257;28;20224;-76
2023/03/24 08:32:37;;;;;;;2.75;2.00;;;;;;;23.33;43.94;99321.31;5052108;28;20695;-75
2023/03/24 08:35:04;;;;;;;3.53;2.15;;;;;;;22.53;47.44;99320.44;5052834;28;20231;-74
2023/03/24 08:37:31;;;;;;;3.38;2.13;;;;;;;23.00;49.98;99315.75;5052461;28;20282;-76
2023/03/24 08:40:04;;;;;;;3.63;2.17;;;;;;;23.01;48.98;99318.22;5052021;28;20223;-75
2023/03/24 08:42:31;;;;;;;3.03;2.05;;;;;;;22.42;45.27;99317.50;5052234;28;20207;-75
2023/03/24 08:44:57;;;;;;;3.55;2.63;;;;;;;22.99;49.38;99320.19;5052158;28;20235;-75
2023/03/24 08:47:26;;;;;;;3.95;2.35;;;;;;;23.73;50.21;99317.22;5052163;28;20202;-76
2023/03/24 08:49:56;;;;;;;3.53;2.40;;;;;;;24.34;45.43;99313.16;5051861;28;20649;-75
2023/03/24 08:52:23;;;;;;;2.95;2.05;;;;;;;24.54;45.34;99316.66;5052159;28;20200;-75
2023/03/24 08:54:50;;;;;;;3.13;2.20;;;;;;;24.70;46.67;99317.34;5052202;28;20232;-75
2023/03/24 08:57:17;;;;;;;3.83;2.30;;;;;;;25.11;46.25;99316.44;5051550;28;20401;-75
2023/03/24 08:59:45;;;;;;;3.45;2.30;;;;;;;24.89;40.68;99315.78;5051822;28;20227;-76
2023/03/24 09:02:12;;;;;;;3.95;2.05;;;;;;;24.63;46.03;99312.88;5051729;28;20639;-76
2023/03/24 09:04:41;;;;;;;4.78;2.58;;;;;;;25.24;44.21;99313.84;5051661;28;20715;-76
2023/03/24 09:07:09;;;;;;;4.68;2.58;;;;;;;24.27;44.81;99307.09;5051454;28;20199;-75
2023/03/24 09:09:38;;;;;;;5.28;2.78;;;;;;;24.58;47.94;99304.84;5051390;28;20707;-76
2023/03/24 09:12:05;;;;;;;3.42;2.13;;;;;;;25.39;44.72;99296.13;5051708;28;20218;-75
2023/03/24 09:14:32;;;;;;;3.58;2.53;;;;;;;25.64;41.41;99293.69;5051533;28;20230;-73
2023/03/24 09:16:59;;;;;;;3.83;2.28;;;;;;;25.24;43.89;99298.13;5051232;28;20193;-74
2023/03/24 09:19:26;;;;;;;4.28;2.47;;;;;;;25.64;41.00;99292.91;5051037;28;20215;-75
2023/03/24 09:21:54;;;;;;;2.88;2.10;;;;;;;24.65;46.65;99288.38;5051239;28;20683;-75
2023/03/24 09:24:21;;;;;;;3.95;2.50;;;;;;;25.25;44.41;99289.31;5051374;28;20235;-75
2023/03/24 09:26:48;;;;;;;2.92;2.20;;;;;;;22.43;45.83;99283.47;5050984;28;20675;-75
2023/03/24 09:29:15;;;;;;;3.22;2.28;;;;;;;22.23;50.29;99282.41;5050880;28;20727;-75
2023/03/24 09:31:41;;;;;;;3.40;2.25;;;;;;;22.78;46.89;99289.66;5050980;28;20200;-75
2023/03/24 09:34:08;;;;;;;3.28;1.80;;;;;;;23.19;46.31;99288.28;5051174;28;20219;-75
2023/03/24 09:36:35;;;;;;;3.15;1.95;;;;;;;24.26;46.74;99284.56;5051017;28;20215;-75
2023/03/24 09:39:03;;;;;;;2.40;1.65;;;;;;;24.08;40.78;99283.28;5050699;28;20223;-74
2023/03/24 09:41:31;;;;;;;2.80;1.88;;;;;;;24.49;44.65;99279.84;5050567;28;20203;-75
2023/03/24 09:44:03;;;;;;;2.80;1.80;;;;;;;25.16;43.35;99280.00;5050680;28;20567;-74
2023/03/24 09:46:35;;;;;;;2.63;1.83;;;;;;;26.08;40.92;99278.31;5050821;28;20703;-75
2023/03/24 09:49:04;;;;;;;2.35;1.73;;;;;;;26.67;38.67;99281.69;5051157;28;20226;-78
2023/03/24 09:51:34;;;;;;;2.55;1.67;;;;;;;25.92;38.04;99276.97;5051653;28;20204;-74
2023/03/24 09:54:13;;;;;;;1.88;1.33;;;;;;;24.49;37.98;99279.84;5050562;28;20475;-74
2023/03/24 09:56:45;;;;;;;1.67;1.50;;;;;;;23.31;38.12;99281.53;5050324;28;20257;-74
2023/03/24 09:59:17;;;;;;;2.38;1.50;;;;;;;22.60;40.49;99284.03;5050394;28;20230;-74
2023/03/24 10:01:45;;;;;;;2.40;1.63;;;;;;;23.13;40.47;99279.41;5050418;28;20207;-75
2023/03/24 10:04:16;;;;;;;1.92;1.55;;;;;;;24.29;42.74;99273.72;5050273;28;20639;-75
2023/03/24 10:06:43;;;;;;;2.80;1.80;;;;;;;25.15;40.25;99273.19;5050461;28;20257;-74
2023/03/24 10:09:23;;;;;;;2.00;1.50;;;;;;;24.60;38.24;99276.66;5050225;28;20277;-75
2023/03/24 10:11:57;;;;;;;3.13;1.83;;;;;;;24.37;39.74;99268.31;5050153;28;20742;-74
2023/03/24 10:14:39;;;;;;;1.92;1.50;;;;;;;25.07;40.61;99266.28;5049957;28;20234;-75
2023/03/24 10:17:18;;;;;;;1.65;1.40;;;;;;;25.71;39.38;99257.00;5050256;28;20198;-74
2023/03/24 10:19:53;;;;;;;2.05;1.40;;;;;;;25.12;37.97;99263.09;5050351;28;20222;-75
2023/03/24 10:22:25;;;;;;;1.90;1.60;;;;;;;25.49;35.48;99269.56;5050266;28;20195;-75
2023/03/24 10:24:59;;;;;;;1.75;1.40;;;;;;;25.37;35.84;99266.75;5050014;28;20235;-75
2023/03/24 10:27:31;;;;;;;2.35;1.58;;;;;;;24.89;37.51;99264.25;5050061;28;20221;-75
2023/03/24 10:30:07;;;;;;;1.63;1.38;;;;;;;25.33;37.93;99262.91;5050176;28;20580;-74
2023/03/24 10:32:35;;;;;;;1.75;1.58;;;;;;;25.48;37.43;99263.50;5049830;28;20195;-73
2023/03/24 10:35:08;;;;;;;1.63;1.40;;;;;;;25.87;37.09;99261.84;5049830;28;20226;-74
2023/03/24 10:37:36;;;;;;;2.13;1.50;;;;;;;25.42;39.11;99253.81;5049775;28;20737;-74
2023/03/24 10:40:15;;;;;;;2.60;1.67;;;;;;;25.57;36.39;99258.03;5049902;28;20223;-74
2023/03/24 10:42:42;;;;;;;1.88;1.50;;;;;;;25.23;35.54;99257.28;5050117;28;20282;-73
2023/03/24 10:45:13;;;;;;;2.45;1.58;;;;;;;25.87;38.01;99251.38;5049785;28;20292;-74
2023/03/24 10:47:41;;;;;;;1.10;1.00;;;;;;;25.77;34.70;99256.19;5049695;28;20210;-74
2023/03/24 10:50:11;;;;;;;2.03;1.50;;;;;;;25.72;34.70;99253.41;5049594;28;20223;-74
2023/03/24 10:52:44;;;;;;;2.70;1.50;;;;;;;24.89;38.19;99251.19;5048833;28;20229;-73
2023/03/24 10:55:17;;;;;;;3.42;2.33;;;;;;;25.03;44.44;99238.94;5049997;28;20226;-73
2023/03/24 10:57:46;;;;;;;3.53;2.33;;;;;;;25.24;45.38;99235.34;5049583;28;20195;-74
2023/03/24 11:00:22;;;;;;;4.57;2.70;;;;;;;24.69;49.05;99232.03;5049471;28;20200;-74
2023/03/24 11:02:56;;;;;;;3.08;2.10;;;;;;;24.32;44.37;99226.31;5049610;28;20191;-73
2023/03/24 11:05:29;;;;;;;2.42;2.10;;;;;;;24.22;43.15;99225.88;5049716;28;20231;-74
2023/03/24 11:08:10;;;;;;;3.45;2.00;;;;;;;24.82;41.49;99222.41;5049537;28;20592;-73
2023/03/24 11:10:39;;;;;;;4.18;2.65;;;;;;;24.99;44.36;99217.59;5049622;28;20211;-74
2023/03/24 11:13:16;;;;;;;3.75;2.75;;;;;;;23.71;45.67;99203.56;5049328;28;20246;-74
2023/03/24 11:15:54;;;;;;;4.18;2.58;;;;;;;23.80;49.17;99201.59;5049498;28;20326;-74
2023/03/24 11:18:22;;;;;;;3.40;2.22;;;;;;;23.94;49.55;99203.28;5049776;28;20211;-75
2023/03/24 11:20:55;;;;;;;3.22;2.45;;;;;;;24.43;50.87;99202.22;5049725;28;20200;-74
2023/03/24 11:23:29;;;;;;;4.00;2.20;;;;;;;23.76;46.04;99185.47;5049528;28;20273;-74
2023/03/24 11:26:07;;;;;;;2.97;2.10;;;;;;;23.80;47.67;99193.75;5049477;28;20210;-73
2023/03/24 11:28:39;;;;;;;4.57;2.35;;;;;;;24.20;47.32;99188.66;5049634;28;20612;-73
2023/03/24 11:31:08;;;;;;;2.40;1.60;;;;;;;24.89;41.31;99185.81;5049326;28;20195;-73
2023/03/24 11:33:44;;;;;;;4.32;1.73;;;;;;;25.13;40.38;99181.75;5049396;28;20211;-73
2023/03/24 11:36:48;;;;;;;2.65;2.03;;;;;;;25.02;43.69;99174.53;5049342;28;20671;-73
2023/03/24 11:39:19;;;;;;;2.35;1.75;;;;;;;24.56;40.02;99175.34;5049422;28;20215;-73
2023/03/24 11:42:01;;;;;;;2.58;1.75;;;;;;;24.87;39.22;99168.69;5049198;28;20199;-73
2023/03/24 11:44:32;;;;;;;1.90;1.48;;;;;;;24.28;36.89;99172.81;5049396;28;20285;-73
2023/03/24 11:47:03;;;;;;;1.75;1.23;;;;;;;23.04;36.27;99168.38;5049324;28;20196;-74
2023/03/24 11:49:32;;;;;;;1.48;1.10;;;;;;;23.73;36.27;99159.78;5049127;28;20231;-75